首页
METAR-TAF:

METAR-TAF

机场 :

石油平台

A12-cpp, 荷兰

纬度: 55-23-57N, 经度: 3-48-37E, 海拔: 33米

当前天气观测

该预报发布于31分钟前的00:55 UTC
风速19节,风向西
温度 13°C
湿度 82%
气压 1001 hPa
能见度10公里或以上

METAR: EHAK 170055Z AUTO 26019KT 9999 SCT011/// SCT015/// BKN045/// 13/10 Q1001 W///H///

时间: 03:26 (01:26 UTC)


TAF: 丢失

超过4000个机场的气象观测和天气预报(METAR&TAF报告)。

可查询的气象台以黄色和红色小点在地图上表示。

将鼠标移到小点上方,可查看气象台名称。

然后点击查看天气观测和预报。

如需切换地图:点击带黑十字的绿色按钮放大地图;点击带横线的绿色按钮缩小地图;或者点击绿色箭头查看邻近地区的地图。


METAR-TAF: